Time;durP1;ratioP1;P1;durP2;ratioP2;P2;SDS_P1;SDS_P2;PMS_P1;PMS_P2;Temp;Humidity;BMP_temperature;BMP_pressure;BME280_temperature;BME280_humidity;BME280_pressure;Samples;Min_cycle;Max_cycle;Signal;HPM_P1;HPM_P2
2022/09/23 00:00:46;;;;;;;7.00;4.50;;;10.30;80.20;;;;;;5054492;28;20028;-38
2022/09/23 00:03:13;;;;;;;7.93;3.92;;;10.30;80.30;;;;;;5053727;28;20037;-38
2022/09/23 00:05:39;;;;;;;6.00;3.90;;;10.30;80.40;;;;;;5054293;28;20028;-38
2022/09/23 00:08:06;;;;;;;8.07;3.67;;;10.30;80.50;;;;;;5054815;28;20052;-38
2022/09/23 00:10:34;;;;;;;8.48;4.43;;;10.20;80.60;;;;;;5054260;28;20029;-39
2022/09/23 00:13:00;;;;;;;6.78;4.22;;;10.20;80.70;;;;;;5054235;28;20099;-38
2022/09/23 00:15:26;;;;;;;6.80;3.75;;;10.20;80.80;;;;;;5054153;28;20025;-38
2022/09/23 00:17:52;;;;;;;10.43;4.53;;;10.20;80.80;;;;;;5054443;28;20029;-38
2022/09/23 00:20:17;;;;;;;6.15;3.95;;;10.20;80.80;;;;;;5054058;28;20469;-44
2022/09/23 00:22:44;;;;;;;6.35;4.57;;;10.20;80.90;;;;;;5054041;28;20043;-39
2022/09/23 00:25:10;;;;;;;6.10;3.92;;;10.20;80.90;;;;;;5053984;28;20437;-39
2022/09/23 00:27:37;;;;;;;5.47;4.05;;;10.20;81.00;;;;;;5054073;28;20074;-38
2022/09/23 00:30:06;;;;;;;6.60;4.28;;;10.20;81.10;;;;;;5054383;28;20078;-38
2022/09/23 00:32:32;;;;;;;5.93;4.22;;;10.20;81.10;;;;;;5053942;28;20479;-38
2022/09/23 00:34:57;;;;;;;8.07;4.50;;;10.20;81.10;;;;;;5052573;28;20457;-38
2022/09/23 00:37:23;;;;;;;4.93;3.53;;;10.30;81.10;;;;;;5053917;28;20021;-38
2022/09/23 00:39:48;;;;;;;9.48;4.05;;;10.30;81.10;;;;;;5052240;28;20452;-38
2022/09/23 00:42:19;;;;;;;10.50;4.82;;;10.30;81.10;;;;;;5054248;28;20029;-38
2022/09/23 00:44:55;;;;;;;6.38;3.83;;;10.30;81.00;;;;;;5054509;28;20361;-44
2022/09/23 00:47:28;;;;;;;8.00;4.53;;;10.30;80.90;;;;;;5053360;28;20049;-39
2022/09/23 00:50:13;;;;;;;9.35;4.90;;;10.20;80.90;;;;;;5053837;28;20040;-39
2022/09/23 00:52:39;;;;;;;7.57;4.90;;;10.30;80.90;;;;;;5053538;28;20381;-39
2022/09/23 00:55:13;;;;;;;11.10;4.82;;;10.20;80.90;;;;;;5053258;28;20092;-38
2022/09/23 00:57:40;;;;;;;5.10;4.03;;;10.20;80.90;;;;;;5053721;28;20461;-38
2022/09/23 01:00:08;;;;;;;12.20;5.93;;;10.20;80.90;;;;;;5051973;28;20032;-38
2022/09/23 01:02:36;;;;;;;8.80;4.47;;;10.20;81.00;;;;;;5053118;28;20033;-38
2022/09/23 01:05:03;;;;;;;10.93;5.18;;;10.20;81.00;;;;;;5053187;28;20041;-37
2022/09/23 01:07:29;;;;;;;7.05;4.53;;;10.20;81.00;;;;;;5053036;28;20029;-39
2022/09/23 01:09:56;;;;;;;8.50;4.13;;;10.20;81.00;;;;;;5053003;28;20098;-37
2022/09/23 01:12:40;;;;;;;6.38;4.43;;;10.10;81.00;;;;;;5053187;28;20418;-38
2022/09/23 01:15:47;;;;;;;14.57;4.28;;;10.10;81.20;;;;;;5052061;28;20048;-38
2022/09/23 01:18:54;;;;;;;7.53;4.30;;;10.10;81.30;;;;;;5031007;28;20037;-38
2022/09/23 01:21:25;;;;;;;6.38;4.60;;;10.00;81.50;;;;;;5043970;28;20033;-37
2022/09/23 01:24:25;;;;;;;7.35;4.63;;;10.00;81.80;;;;;;5053120;28;20029;-38
2022/09/23 01:26:56;;;;;;;9.95;4.68;;;9.90;81.90;;;;;;5052934;28;20069;-38
2022/09/23 01:30:00;;;;;;;9.20;5.07;;;9.90;82.00;;;;;;5053257;28;20423;-38
2022/09/23 01:32:43;;;;;;;7.97;4.63;;;9.80;82.20;;;;;;5052685;28;20381;-39
2022/09/23 01:35:34;;;;;;;10.20;4.72;;;9.80;82.30;;;;;;5052974;28;20029;-40
2022/09/23 01:38:32;;;;;;;9.00;4.88;;;9.80;82.50;;;;;;5052973;28;20044;-43
2022/09/23 01:41:14;;;;;;;8.15;4.70;;;9.80;82.50;;;;;;5050861;28;20037;-39
2022/09/23 01:43:58;;;;;;;9.35;5.50;;;9.80;82.60;;;;;;5051391;28;20032;-38
2022/09/23 01:46:41;;;;;;;6.50;3.95;;;9.80;82.80;;;;;;5052683;28;20551;-38
2022/09/23 01:49:20;;;;;;;8.93;5.75;;;9.80;82.80;;;;;;5053765;28;20021;-38
2022/09/23 01:51:58;;;;;;;9.30;4.68;;;9.80;82.80;;;;;;5052692;28;20354;-38
2022/09/23 01:54:37;;;;;;;4.57;3.47;;;9.80;82.60;;;;;;5052848;28;20087;-38
2022/09/23 01:57:27;;;;;;;6.65;4.07;;;9.80;82.70;;;;;;5052556;28;20037;-38
2022/09/23 02:00:02;;;;;;;8.10;4.63;;;9.80;82.60;;;;;;5052810;28;20025;-38
2022/09/23 02:02:36;;;;;;;7.97;4.15;;;9.80;82.50;;;;;;5052533;28;20040;-39
2022/09/23 02:05:13;;;;;;;9.48;4.03;;;9.80;82.50;;;;;;5052788;28;20029;-39
2022/09/23 02:07:49;;;;;;;7.18;3.75;;;9.80;82.50;;;;;;5053006;28;20021;-38
2022/09/23 02:10:34;;;;;;;8.00;4.57;;;9.80;82.50;;;;;;5056578;28;20056;-38
2022/09/23 02:13:07;;;;;;;8.98;4.97;;;9.80;82.50;;;;;;5056846;28;20040;-38
2022/09/23 02:15:43;;;;;;;13.20;4.57;;;9.80;82.40;;;;;;5056822;28;20021;-38
2022/09/23 02:18:42;;;;;;;6.40;3.72;;;9.80;82.50;;;;;;5056497;28;20033;-38
2022/09/23 02:21:08;;;;;;;5.97;3.80;;;9.80;82.40;;;;;;5056408;28;20025;-39
2022/09/23 02:23:41;;;;;;;6.25;4.35;;;9.80;82.50;;;;;;5056338;28;20033;-38
2022/09/23 02:26:10;;;;;;;6.15;3.92;;;9.80;82.50;;;;;;5054957;28;20090;-37
2022/09/23 02:28:54;;;;;;;4.45;3.70;;;9.70;82.60;;;;;;5056127;28;20112;-37
2022/09/23 02:31:36;;;;;;;9.10;4.15;;;9.70;82.80;;;;;;5055971;28;20017;-38
2022/09/23 02:34:18;;;;;;;10.20;3.67;;;9.70;82.90;;;;;;5056308;28;20104;-37
2022/09/23 02:36:52;;;;;;;9.80;3.95;;;9.70;83.00;;;;;;5056077;28;20052;-37
2022/09/23 02:39:21;;;;;;;7.70;4.22;;;9.70;83.10;;;;;;5055822;28;20029;-40
2022/09/23 02:42:04;;;;;;;4.90;3.45;;;9.70;83.20;;;;;;5055707;28;20437;-38
2022/09/23 02:44:30;;;;;;;5.70;3.28;;;9.60;83.40;;;;;;5055710;28;20380;-38
2022/09/23 02:46:56;;;;;;;6.50;3.65;;;9.60;83.50;;;;;;5055345;28;20070;-39
2022/09/23 02:49:24;;;;;;;6.72;3.53;;;9.60;83.50;;;;;;5055457;28;20032;-45
2022/09/23 02:51:50;;;;;;;6.43;3.53;;;9.60;83.60;;;;;;5055744;28;20043;-37
2022/09/23 02:54:23;;;;;;;9.75;4.00;;;9.60;83.60;;;;;;5055460;28;20021;-37
2022/09/23 02:56:48;;;;;;;5.90;3.53;;;9.60;83.70;;;;;;5055416;28;20361;-38
2022/09/23 02:59:18;;;;;;;5.00;3.50;;;9.60;83.60;;;;;;5055205;28;20106;-38
2022/09/23 03:02:12;;;;;;;9.23;4.05;;;9.60;83.50;;;;;;5055515;28;20366;-37
2022/09/23 03:05:11;;;;;;;8.18;3.72;;;9.60;83.40;;;;;;5055525;28;20063;-37
2022/09/23 03:08:18;;;;;;;4.60;3.47;;;9.70;83.30;;;;;;5055165;28;20104;-38
2022/09/23 03:11:03;;;;;;;9.88;4.32;;;9.70;83.30;;;;;;5055390;28;20032;-38
2022/09/23 03:13:41;;;;;;;10.55;4.88;;;9.70;83.20;;;;;;5055029;28;20096;-38
2022/09/23 03:16:51;;;;;;;5.68;3.17;;;9.60;83.30;;;;;;5055751;28;20056;-38
2022/09/23 03:19:50;;;;;;;5.93;4.17;;;9.60;83.40;;;;;;5032387;28;20068;-38
2022/09/23 03:22:38;;;;;;;7.25;3.70;;;9.60;83.60;;;;;;5022631;28;20292;-38
2022/09/23 03:25:09;;;;;;;4.15;3.35;;;9.50;83.70;;;;;;5052152;28;20033;-39
2022/09/23 03:27:36;;;;;;;7.93;3.38;;;9.50;83.90;;;;;;5053813;28;20032;-38
2022/09/23 03:30:04;;;;;;;6.00;3.92;;;9.50;84.00;;;;;;5053576;28;20427;-38
2022/09/23 03:32:31;;;;;;;6.85;4.68;;;9.50;84.00;;;;;;5055008;28;20469;-38
2022/09/23 03:34:59;;;;;;;4.22;3.42;;;9.40;84.10;;;;;;5055279;28;20013;-39
2022/09/23 03:37:52;;;;;;;7.22;4.15;;;9.40;84.20;;;;;;5054894;28;20040;-39
2022/09/23 03:40:31;;;;;;;12.25;3.60;;;9.40;84.40;;;;;;5055181;28;20025;-38
2022/09/23 03:43:00;;;;;;;12.32;3.83;;;9.30;84.50;;;;;;5053956;28;20116;-39
2022/09/23 03:45:30;;;;;;;5.70;3.63;;;9.30;84.50;;;;;;5054666;28;20107;-40
2022/09/23 03:47:56;;;;;;;7.10;3.70;;;9.30;84.60;;;;;;5054786;28;20029;-39
2022/09/23 03:50:21;;;;;;;5.68;3.70;;;9.30;84.80;;;;;;5054612;28;20029;-39
2022/09/23 03:52:49;;;;;;;5.70;4.00;;;9.30;84.80;;;;;;5054655;28;20048;-38
2022/09/23 03:55:16;;;;;;;5.50;4.07;;;9.20;84.90;;;;;;5055141;28;20460;-39
2022/09/23 03:57:42;;;;;;;9.65;3.15;;;9.20;84.90;;;;;;5054815;28;20021;-39
2022/09/23 04:00:08;;;;;;;8.55;4.55;;;9.20;85.00;;;;;;5054962;28;20036;-38
2022/09/23 04:02:34;;;;;;;7.18;3.88;;;9.20;85.00;;;;;;5054544;28;20111;-38
2022/09/23 04:05:00;;;;;;;9.10;3.67;;;9.20;85.10;;;;;;5055182;28;20029;-41
2022/09/23 04:07:26;;;;;;;8.25;3.55;;;9.20;85.30;;;;;;5054955;28;20075;-37
2022/09/23 04:09:52;;;;;;;6.40;3.35;;;9.20;85.40;;;;;;5054492;28;20025;-40
2022/09/23 04:12:18;;;;;;;4.82;3.45;;;9.20;85.40;;;;;;5053250;28;20021;-38
2022/09/23 04:14:44;;;;;;;6.72;4.35;;;9.20;85.40;;;;;;5054607;28;20031;-38
2022/09/23 04:17:10;;;;;;;6.40;3.92;;;9.20;85.40;;;;;;5054646;28;20031;-38
2022/09/23 04:19:36;;;;;;;6.43;3.40;;;9.10;85.60;;;;;;5054946;28;20037;-38
2022/09/23 04:22:03;;;;;;;4.72;3.80;;;9.10;85.70;;;;;;5055958;28;20111;-38
2022/09/23 04:24:29;;;;;;;6.05;3.55;;;9.00;85.80;;;;;;5053150;28;20028;-38
2022/09/23 04:26:55;;;;;;;7.95;3.78;;;9.00;86.00;;;;;;5054143;28;20075;-40
2022/09/23 04:29:22;;;;;;;8.55;4.30;;;9.00;86.10;;;;;;5052626;28;20100;-40
2022/09/23 04:31:48;;;;;;;7.20;5.20;;;9.00;86.10;;;;;;5053020;28;20075;-39
2022/09/23 04:34:16;;;;;;;6.50;3.42;;;8.90;86.10;;;;;;5053743;28;20461;-39
2022/09/23 04:36:43;;;;;;;6.30;3.97;;;8.90;86.00;;;;;;5053753;28;20108;-39
2022/09/23 04:39:09;;;;;;;6.63;3.65;;;8.90;85.90;;;;;;5053600;28;20032;-40
2022/09/23 04:41:35;;;;;;;6.75;4.10;;;8.80;86.10;;;;;;5053528;28;20031;-39
2022/09/23 04:44:01;;;;;;;5.68;3.63;;;8.80;86.30;;;;;;5052174;28;20033;-40
2022/09/23 04:46:27;;;;;;;11.05;4.15;;;8.80;86.50;;;;;;5053257;28;20056;-39
2022/09/23 04:48:53;;;;;;;5.32;3.95;;;8.80;86.50;;;;;;5053509;28;20025;-39
2022/09/23 04:51:21;;;;;;;6.70;3.30;;;8.80;86.60;;;;;;5053495;28;20031;-39
2022/09/23 04:53:49;;;;;;;10.77;4.13;;;8.80;86.50;;;;;;5053654;28;20068;-39
2022/09/23 04:56:17;;;;;;;6.97;4.35;;;8.70;86.50;;;;;;5053171;28;20032;-39
2022/09/23 04:58:44;;;;;;;7.93;4.00;;;8.70;86.60;;;;;;5053562;28;20389;-39
2022/09/23 05:01:16;;;;;;;6.60;4.35;;;8.60;86.70;;;;;;5053939;28;20459;-39
2022/09/23 05:03:43;;;;;;;10.35;5.93;;;8.60;86.70;;;;;;5052395;28;20032;-39
2022/09/23 17:38:47;;;;;;;10.63;5.90;;;15.60;74.70;;;;;;5070183;28;20846;-39
2022/09/23 17:41:14;;;;;;;27.63;16.30;;;15.60;76.30;;;;;;5070194;28;20469;-39
2022/09/23 17:43:40;;;;;;;13.73;6.28;;;15.60;77.40;;;;;;5070146;28;20086;-38
2022/09/23 17:46:08;;;;;;;10.95;5.40;;;15.70;77.80;;;;;;5070594;28;20408;-38
2022/09/23 17:48:40;;;;;;;8.07;5.10;;;15.60;78.40;;;;;;5069857;28;20551;-39
2022/09/23 17:51:12;;;;;;;13.88;5.88;;;15.60;79.20;;;;;;5070274;28;20081;-39
2022/09/23 17:53:39;;;;;;;10.63;6.28;;;15.60;80.20;;;;;;5068368;28;20031;-39
2022/09/23 17:56:22;;;;;;;12.98;6.10;;;15.50;80.90;;;;;;5068139;28;20127;-38
2022/09/23 17:58:48;;;;;;;11.68;6.07;;;15.50;81.30;;;;;;5070072;28;20182;-38
2022/09/23 18:01:23;;;;;;;12.45;8.40;;;15.50;80.60;;;;;;5068366;28;20396;-38
2022/09/23 18:03:57;;;;;;;12.95;7.00;;;15.50;80.60;;;;;;5052859;28;20103;-38
2022/09/23 18:06:25;;;;;;;13.30;7.10;;;15.50;81.50;;;;;;5069783;28;20147;-40
2022/09/23 18:08:52;;;;;;;12.52;7.82;;;15.40;80.90;;;;;;5068046;28;20044;-38
2022/09/23 18:11:28;;;;;;;13.00;7.85;;;15.50;80.90;;;;;;5069331;28;20070;-38
2022/09/23 18:14:02;;;;;;;15.13;7.15;;;15.50;81.40;;;;;;5069462;28;20082;-37
2022/09/23 18:16:36;;;;;;;13.40;6.57;;;15.40;81.50;;;;;;5069369;28;20032;-38
2022/09/23 18:19:03;;;;;;;11.52;5.35;;;15.40;81.70;;;;;;5069055;28;20073;-38
2022/09/23 18:21:34;;;;;;;18.75;13.55;;;15.30;81.50;;;;;;5069739;28;20029;-38
2022/09/23 18:23:59;;;;;;;13.80;8.25;;;15.30;81.20;;;;;;5069653;28;20024;-39
2022/09/23 18:26:26;;;;;;;11.48;6.25;;;15.30;81.20;;;;;;5068897;28;20484;-38
2022/09/23 18:28:55;;;;;;;15.93;8.00;;;15.30;80.90;;;;;;5068879;28;20032;-39
2022/09/23 18:31:21;;;;;;;12.23;6.85;;;15.30;78.90;;;;;;5069153;28;20029;-39
2022/09/23 18:33:51;;;;;;;20.67;10.68;;;15.30;78.70;;;;;;5068861;28;20028;-39
2022/09/23 18:36:18;;;;;;;12.23;6.65;;;15.30;78.90;;;;;;5069034;28;20551;-39
2022/09/23 18:38:45;;;;;;;20.20;8.57;;;15.30;78.90;;;;;;5068747;28;20044;-39
2022/09/23 18:41:11;;;;;;;10.85;6.22;;;15.30;79.90;;;;;;5068768;28;20469;-38
2022/09/23 18:43:37;;;;;;;11.80;5.75;;;15.30;80.10;;;;;;5068512;28;20021;-39
2022/09/23 18:46:06;;;;;;;13.10;6.30;;;15.20;79.00;;;;;;5068332;28;20028;-38
2022/09/23 18:51:19;;;;;;;10.85;6.38;;;15.10;79.70;;;;;;5055954;28;20097;-39
2022/09/23 18:53:46;;;;;;;9.02;5.32;;;15.10;80.00;;;;;;5053805;28;20017;-41
2022/09/23 18:56:20;;;;;;;12.40;6.70;;;15.00;80.30;;;;;;5055564;28;20021;-38
2022/09/23 18:58:48;;;;;;;9.27;6.40;;;14.90;80.60;;;;;;5055186;28;20025;-39
2022/09/23 19:01:14;;;;;;;20.92;7.28;;;14.80;80.80;;;;;;5055162;28;20025;-38
2022/09/23 19:03:40;;;;;;;13.80;8.02;;;14.80;80.00;;;;;;5053646;28;20033;-38
2022/09/23 19:06:14;;;;;;;13.43;9.40;;;14.80;79.30;;;;;;5053717;28;20115;-37
2022/09/23 19:08:41;;;;;;;13.70;8.85;;;15.00;78.30;;;;;;5055453;28;20025;-38
2022/09/23 19:11:11;;;;;;;13.90;7.20;;;15.00;77.90;;;;;;5055224;28;20040;-39
2022/09/23 19:13:37;;;;;;;11.32;7.55;;;15.00;77.50;;;;;;5054391;28;20052;-38
2022/09/23 19:16:10;;;;;;;11.70;5.50;;;15.10;77.30;;;;;;5054911;28;20021;-39
2022/09/23 19:18:37;;;;;;;14.38;6.30;;;15.00;76.70;;;;;;5036840;28;20028;-39
2022/09/23 19:21:07;;;;;;;13.18;7.50;;;14.90;76.30;;;;;;5055179;28;20021;-39
2022/09/23 19:23:33;;;;;;;11.63;7.57;;;14.80;78.00;;;;;;5055214;28;20024;-39
2022/09/23 19:26:11;;;;;;;14.30;7.82;;;14.80;79.20;;;;;;5054680;28;20039;-38
2022/09/23 19:28:38;;;;;;;10.88;7.82;;;14.70;79.30;;;;;;5055104;28;20025;-38
2022/09/23 19:31:15;;;;;;;14.18;8.23;;;14.50;80.20;;;;;;5054666;28;20025;-38
2022/09/23 19:34:03;;;;;;;21.80;11.90;;;14.60;80.80;;;;;;5054823;28;20025;-38
2022/09/23 19:36:33;;;;;;;21.75;11.73;;;14.50;81.20;;;;;;5053242;28;20121;-39
2022/09/23 19:39:02;;;;;;;21.75;12.13;;;14.50;81.30;;;;;;5053221;28;20021;-38
2022/09/23 19:41:30;;;;;;;16.75;10.52;;;14.50;81.20;;;;;;5054503;28;20037;-38
2022/09/23 19:44:01;;;;;;;13.23;8.45;;;14.50;81.10;;;;;;5052974;28;20025;-39
2022/09/23 19:46:31;;;;;;;13.80;7.95;;;14.50;80.80;;;;;;5054334;28;20378;-38
2022/09/23 19:48:57;;;;;;;10.55;7.28;;;14.50;80.90;;;;;;5054248;28;20017;-39
2022/09/23 19:51:23;;;;;;;12.60;8.70;;;14.50;81.20;;;;;;5054810;28;20100;-40
2022/09/23 19:53:49;;;;;;;17.63;8.02;;;14.60;81.50;;;;;;5054794;28;20053;-39
2022/09/23 19:56:16;;;;;;;11.25;7.38;;;14.60;81.70;;;;;;5054363;28;20461;-39
2022/09/23 19:58:44;;;;;;;13.75;7.32;;;14.50;82.20;;;;;;5053770;28;20116;-39
2022/09/23 20:01:10;;;;;;;14.07;7.70;;;14.50;82.80;;;;;;5053309;28;20380;-38
2022/09/23 20:03:36;;;;;;;12.90;8.23;;;14.50;83.50;;;;;;5053993;28;20021;-39
2022/09/23 20:06:01;;;;;;;12.23;7.43;;;14.40;83.20;;;;;;5052965;28;20580;-38
2022/09/23 20:08:27;;;;;;;12.85;8.35;;;14.40;83.20;;;;;;5053839;28;20024;-39
2022/09/23 20:10:52;;;;;;;19.40;7.47;;;14.40;83.20;;;;;;5053792;28;20115;-39
2022/09/23 20:13:18;;;;;;;14.98;6.55;;;14.40;83.00;;;;;;5053740;28;20388;-39
2022/09/23 20:15:47;;;;;;;14.60;7.03;;;14.40;81.70;;;;;;5053849;28;20036;-39
2022/09/23 20:18:12;;;;;;;17.48;7.15;;;14.50;80.60;;;;;;5053619;28;20033;-40
2022/09/23 20:20:38;;;;;;;12.20;6.55;;;14.50;80.70;;;;;;5053661;28;20025;-40
2022/09/23 20:23:03;;;;;;;12.57;6.88;;;14.40;80.40;;;;;;5053680;28;20028;-38
2022/09/23 20:27:07;;;;;;;13.57;6.50;;;14.40;80.70;;;;;;5053664;28;20480;-39
2022/09/23 20:28:15;;;;;;;11.73;6.60;;;14.40;79.80;;;;;;5053519;28;20033;-38
2022/09/23 20:30:42;;;;;;;12.45;7.82;;;14.40;79.80;;;;;;5053637;28;20427;-39
2022/09/23 20:33:09;;;;;;;10.13;7.15;;;14.50;80.10;;;;;;5053706;28;20039;-39
2022/09/23 20:35:34;;;;;;;12.68;8.77;;;14.50;80.10;;;;;;5053563;28;20048;-38
2022/09/23 20:38:00;;;;;;;14.63;10.15;;;14.50;80.20;;;;;;5052125;28;20045;-39
2022/09/23 20:40:25;;;;;;;27.75;13.23;;;14.50;80.60;;;;;;5053540;28;20021;-39
2022/09/23 20:42:51;;;;;;;40.55;14.65;;;14.40;81.80;;;;;;5053580;28;20029;-39
2022/09/23 20:45:17;;;;;;;41.78;16.10;;;14.40;83.40;;;;;;5053521;28;20138;-39
2022/09/23 20:47:43;;;;;;;37.97;16.88;;;14.30;84.20;;;;;;5053403;28;20029;-38
2022/09/23 20:50:08;;;;;;;32.63;14.23;;;14.30;84.80;;;;;;5051973;28;20116;-39
2022/09/23 20:52:35;;;;;;;38.40;18.67;;;14.20;85.00;;;;;;5053407;28;20062;-38
2022/09/23 20:55:01;;;;;;;20.13;11.35;;;14.10;84.80;;;;;;5051805;28;20027;-38
2022/09/23 20:57:28;;;;;;;19.05;10.60;;;14.00;84.60;;;;;;5051645;28;20072;-41
2022/09/23 20:59:54;;;;;;;15.32;9.10;;;14.00;84.60;;;;;;5052838;28;20056;-40
2022/09/23 21:02:20;;;;;;;19.02;8.88;;;14.10;84.30;;;;;;5052852;28;20025;-38
2022/09/23 21:04:46;;;;;;;13.55;8.70;;;14.00;84.50;;;;;;5052804;28;20024;-40
2022/09/23 21:07:11;;;;;;;12.30;7.93;;;14.10;84.60;;;;;;5053050;28;20039;-38
2022/09/23 21:09:37;;;;;;;14.63;8.23;;;14.10;84.20;;;;;;5053013;28;20104;-39
2022/09/23 21:12:03;;;;;;;15.80;7.82;;;14.10;83.70;;;;;;5052449;28;20166;-38
2022/09/23 21:14:31;;;;;;;14.10;7.68;;;14.10;83.30;;;;;;5053308;28;20493;-40
2022/09/23 21:16:56;;;;;;;11.70;6.95;;;14.20;82.60;;;;;;5052827;28;20441;-39
2022/09/23 21:19:23;;;;;;;10.40;6.43;;;14.20;82.00;;;;;;5053280;28;20096;-40
2022/09/23 21:21:49;;;;;;;12.07;6.18;;;14.20;81.90;;;;;;5052980;28;20108;-38
2022/09/23 21:24:15;;;;;;;17.70;6.82;;;14.20;82.00;;;;;;5052949;28;20527;-41
2022/09/23 21:26:43;;;;;;;16.33;7.93;;;14.20;82.40;;;;;;5052608;28;20103;-39
2022/09/23 21:29:09;;;;;;;7.53;6.20;;;14.20;83.00;;;;;;5052740;28;20021;-40
2022/09/23 21:31:37;;;;;;;14.65;7.82;;;14.10;83.30;;;;;;5051362;28;20029;-39
2022/09/23 21:34:07;;;;;;;7.93;5.88;;;14.10;83.70;;;;;;5051364;28;20056;-39
2022/09/23 21:36:36;;;;;;;8.25;6.25;;;14.00;83.10;;;;;;5051037;28;20473;-38
2022/09/23 21:39:04;;;;;;;12.93;8.40;;;14.10;82.90;;;;;;5052722;28;20025;-39
2022/09/23 21:41:30;;;;;;;12.70;7.20;;;14.10;82.70;;;;;;5052713;28;20025;-38
2022/09/23 21:43:56;;;;;;;17.75;9.43;;;14.10;81.80;;;;;;5052730;28;20057;-39
2022/09/23 21:46:23;;;;;;;14.80;8.85;;;14.20;81.90;;;;;;5051474;28;20021;-39
2022/09/23 21:48:52;;;;;;;20.10;9.93;;;14.20;82.30;;;;;;5052501;28;20060;-38
2022/09/23 21:51:24;;;;;;;16.95;9.27;;;14.40;82.30;;;;;;5051186;28;20064;-38
2022/09/23 21:53:54;;;;;;;17.70;9.20;;;14.30;82.70;;;;;;5052650;28;20053;-38
2022/09/23 21:56:28;;;;;;;18.33;9.50;;;14.20;83.50;;;;;;5052716;28;20033;-39
2022/09/23 21:58:55;;;;;;;19.02;9.00;;;14.20;83.60;;;;;;5053117;28;20037;-39
2022/09/23 22:01:26;;;;;;;15.32;9.00;;;14.20;84.10;;;;;;5050980;28;20035;-39
2022/09/23 22:03:55;;;;;;;15.48;8.98;;;14.10;84.20;;;;;;5052220;28;20051;-38
2022/09/23 22:06:29;;;;;;;17.75;9.57;;;14.00;84.20;;;;;;5052375;28;20029;-38
2022/09/23 22:09:00;;;;;;;16.50;9.85;;;14.00;84.30;;;;;;5052284;28;20025;-38
2022/09/23 22:14:17;;;;;;;12.52;8.23;;;14.00;84.10;;;;;;5052588;28;20028;-38
2022/09/23 22:16:43;;;;;;;18.52;10.65;;;14.10;84.00;;;;;;5050812;28;20025;-38
2022/09/23 22:19:11;;;;;;;16.13;8.75;;;14.00;83.90;;;;;;5052295;28;20060;-39
2022/09/23 22:21:38;;;;;;;13.50;7.13;;;14.10;84.00;;;;;;5051125;28;20030;-39
2022/09/23 22:24:06;;;;;;;17.23;7.30;;;14.10;83.70;;;;;;5054008;28;20106;-39
2022/09/23 22:26:37;;;;;;;12.45;7.47;;;14.10;83.40;;;;;;5056220;28;20017;-38
2022/09/23 22:34:33;;;;;;;12.88;7.43;;;14.20;81.30;;;;;;5055551;28;20071;-38
2022/09/23 22:36:59;;;;;;;12.52;7.03;;;14.20;81.80;;;;;;5055869;28;20045;-40
2022/09/23 22:39:27;;;;;;;15.73;8.30;;;14.10;81.70;;;;;;5055556;28;20025;-38
2022/09/23 22:41:52;;;;;;;13.27;7.20;;;14.10;81.90;;;;;;5055627;28;20055;-40
2022/09/23 22:44:21;;;;;;;9.32;6.60;;;14.00;81.90;;;;;;5056282;28;20068;-38
2022/09/23 22:46:47;;;;;;;12.65;6.82;;;13.90;81.90;;;;;;5055452;28;20028;-39
2022/09/23 22:49:14;;;;;;;12.52;6.82;;;13.90;81.80;;;;;;5055361;28;20028;-38
2022/09/23 22:51:42;;;;;;;8.93;6.22;;;13.90;81.70;;;;;;5056163;28;20090;-39
2022/09/23 22:54:09;;;;;;;13.73;6.22;;;13.90;81.20;;;;;;5055776;28;20048;-38
2022/09/23 22:56:36;;;;;;;9.35;6.10;;;14.00;80.90;;;;;;5055452;28;20071;-39
2022/09/23 22:59:06;;;;;;;9.38;5.78;;;14.00;80.60;;;;;;5055455;28;20036;-39
2022/09/23 23:01:33;;;;;;;13.43;5.63;;;14.00;80.60;;;;;;5055318;28;20096;-38
2022/09/23 23:04:02;;;;;;;16.25;5.65;;;14.20;79.90;;;;;;5055685;28;20086;-38
2022/09/23 23:06:35;;;;;;;8.98;6.43;;;14.20;79.10;;;;;;5055372;28;20021;-38
2022/09/23 23:09:09;;;;;;;9.98;6.30;;;14.20;79.20;;;;;;5056418;28;20033;-38
2022/09/23 23:11:35;;;;;;;11.55;5.65;;;14.30;78.90;;;;;;5055181;28;20033;-40
2022/09/23 23:14:01;;;;;;;13.45;5.60;;;14.20;78.90;;;;;;5053997;28;20039;-38
2022/09/23 23:16:32;;;;;;;10.18;6.05;;;14.20;78.60;;;;;;5053899;28;20029;-40
2022/09/23 23:18:58;;;;;;;10.75;5.95;;;14.20;78.50;;;;;;5055479;28;20037;-39
2022/09/23 23:21:24;;;;;;;11.93;6.43;;;14.10;78.70;;;;;;5055104;28;20455;-38
2022/09/23 23:23:51;;;;;;;9.00;5.40;;;14.10;78.70;;;;;;5055319;28;20056;-39
2022/09/23 23:26:22;;;;;;;8.38;5.55;;;14.10;78.40;;;;;;5055037;28;20032;-39
2022/09/23 23:28:49;;;;;;;;;;;14.10;78.90;;;;;;5055720;28;20024;-39
2022/09/23 23:31:17;;;;;;;8.10;5.43;;;14.10;78.60;;;;;;5054793;28;19969;-38
2022/09/23 23:33:43;;;;;;;11.65;6.38;;;14.00;79.10;;;;;;5055163;28;20476;-39
2022/09/23 23:36:10;;;;;;;13.85;6.43;;;14.00;79.30;;;;;;5054834;28;20021;-38
2022/09/23 23:38:37;;;;;;;9.20;5.95;;;13.80;80.40;;;;;;5054615;28;20069;-38
2022/09/23 23:41:12;;;;;;;7.97;5.40;;;13.90;80.30;;;;;;5053289;28;20424;-38
2022/09/23 23:43:42;;;;;;;11.68;6.72;;;14.00;80.00;;;;;;5055166;28;20025;-38
2022/09/23 23:46:08;;;;;;;12.75;7.47;;;14.00;80.30;;;;;;5055024;28;20040;-38
2022/09/23 23:48:36;;;;;;;15.18;7.03;;;14.10;80.00;;;;;;5054737;28;20062;-38
2022/09/23 23:51:04;;;;;;;14.43;7.68;;;14.10;79.90;;;;;;5054630;28;20020;-38
2022/09/23 23:53:38;;;;;;;11.85;7.32;;;14.00;80.30;;;;;;5053026;28;20027;-38
2022/09/23 23:56:06;;;;;;;12.63;7.80;;;14.10;80.50;;;;;;5054687;28;20020;-38
2022/09/23 23:58:33;;;;;;;18.40;9.32;;;14.10;81.00;;;;;;5054319;28;20115;-38
